Time;durP1;ratioP1;P1;durP2;ratioP2;P2;SDS_P1;SDS_P2;PMS_P1;PMS_P2;Temp;Humidity;BMP_temperature;BMP_pressure;BME280_temperature;BME280_humidity;BME280_pressure;Samples;Min_cycle;Max_cycle;Signal;HPM_P1;HPM_P2
2023/03/30 00:06:04;;;;;;;37.70;17.10;;;;;;;0.70;70.48;99163.95;270418;1268;22222;-84
2023/03/30 00:12:05;;;;;;;51.00;22.50;;;;;;;0.72;70.75;99157.30;270488;1268;22399;-84
2023/03/30 00:18:08;;;;;;;59.60;28.70;;;;;;;0.80;71.15;99147.36;270926;1268;22397;-84
2023/03/30 00:24:31;;;;;;;64.70;28.60;;;;;;;0.86;71.45;99132.13;273590;1271;22258;-84
2023/03/30 00:30:33;;;;;;;64.60;29.40;;;;;;;0.84;71.57;99127.73;270053;1269;22647;-84
2023/03/30 00:36:57;;;;;;;59.60;27.70;;;;;;;0.81;71.29;99125.66;271290;1268;22654;-84
2023/03/30 00:43:02;;;;;;;69.00;26.40;;;;;;;0.85;71.65;99126.39;269633;1268;22643;-84
2023/03/30 00:49:08;;;;;;;49.10;22.70;;;;;;;0.91;71.47;99117.96;272691;1269;22399;-84
2023/03/30 00:55:10;;;;;;;53.50;22.40;;;;;;;1.02;71.36;99109.95;273722;1258;22565;-84
2023/03/30 01:01:27;;;;;;;49.70;21.20;;;;;;;1.15;71.80;99106.37;273733;1268;22243;-85
2023/03/30 01:07:31;;;;;;;43.70;20.70;;;;;;;1.28;71.95;99103.70;273611;1268;22237;-84
2023/03/30 01:13:37;;;;;;;44.60;20.90;;;;;;;1.42;71.96;99101.76;272217;1268;22458;-84
2023/03/30 01:20:08;;;;;;;41.40;19.50;;;;;;;1.56;72.66;99100.17;271006;1268;22305;-84
2023/03/30 01:26:41;;;;;;;39.80;17.90;;;;;;;1.67;72.62;99097.44;272206;1268;22393;-84
2023/03/30 01:33:21;;;;;;;39.90;17.90;;;;;;;1.75;73.05;99091.52;273428;1256;22398;-84
2023/03/30 01:39:56;;;;;;;39.70;17.70;;;;;;;1.84;73.79;99091.63;272165;1268;22226;-85
2023/03/30 01:46:23;;;;;;;39.20;17.70;;;;;;;1.89;73.92;99090.95;272696;1268;22551;-84
2023/03/30 01:52:31;;;;;;;44.10;20.50;;;;;;;1.93;74.10;99084.34;273596;1268;22424;-84
2023/03/30 01:58:38;;;;;;;43.70;19.60;;;;;;;1.96;74.38;99079.68;273532;1260;22493;-84
2023/03/30 02:04:44;;;;;;;41.70;19.20;;;;;;;1.91;74.22;99076.69;272914;1268;22514;-84
2023/03/30 02:10:48;;;;;;;42.80;19.20;;;;;;;1.82;74.08;99074.65;270395;1268;24263;-83
2023/03/30 02:17:13;;;;;;;39.70;16.50;;;;;;;1.73;73.77;99075.02;270146;1268;22642;-84
2023/03/30 02:23:17;;;;;;;37.10;17.30;;;;;;;1.65;73.83;99073.80;271026;1268;22519;-85
2023/03/30 02:29:21;;;;;;;37.40;15.50;;;;;;;1.58;73.93;99067.23;269984;1269;24369;-83
2023/03/30 02:35:36;;;;;;;28.30;13.50;;;;;;;1.53;73.98;99059.98;271279;1268;22425;-83
2023/03/30 02:41:49;;;;;;;22.80;11.30;;;;;;;1.45;74.15;99051.08;273445;1260;22411;-83
2023/03/30 02:48:27;;;;;;;23.30;11.10;;;;;;;1.33;74.38;99053.78;273736;1263;22401;-84
2023/03/30 02:54:58;;;;;;;22.60;10.40;;;;;;;1.22;74.85;99051.39;273595;1268;22207;-84
2023/03/30 03:01:33;;;;;;;17.70;10.00;;;;;;;1.14;75.43;99048.44;273656;1268;23010;-83
2023/03/30 03:07:41;;;;;;;23.80;10.30;;;;;;;1.08;76.00;99042.04;273592;1268;22396;-83
2023/03/30 03:13:43;;;;;;;22.30;10.20;;;;;;;0.95;75.92;99039.48;272714;1269;22209;-83
2023/03/30 03:19:45;;;;;;;25.00;12.00;;;;;;;0.78;76.11;99036.40;273228;1269;23209;-84
2023/03/30 03:25:56;;;;;;;22.90;11.10;;;;;;;0.72;76.67;99032.89;273589;1268;22449;-84
2023/03/30 03:31:58;;;;;;;24.90;11.40;;;;;;;0.71;77.02;99027.30;273732;1268;22435;-83
2023/03/30 03:38:03;;;;;;;31.80;13.40;;;;;;;0.68;77.36;99020.00;273392;1269;22451;-84
2023/03/30 03:44:06;;;;;;;20.80;10.30;;;;;;;0.71;77.48;99007.80;273419;1269;22481;-84
2023/03/30 03:50:08;;;;;;;25.50;12.40;;;;;;;0.77;77.99;98997.73;273597;1270;23110;-84
2023/03/30 03:56:11;;;;;;;24.00;11.30;;;;;;;0.83;78.10;98992.04;272376;1269;23315;-85
2023/03/30 04:02:33;;;;;;;20.30;9.20;;;;;;;0.90;78.25;98980.11;271412;1268;25081;-84
2023/03/30 04:08:35;;;;;;;24.60;11.30;;;;;;;0.96;78.52;98974.33;270716;1268;22558;-84
2023/03/30 04:14:58;;;;;;;30.60;12.90;;;;;;;1.06;78.99;98969.86;272363;1268;22412;-84
2023/03/30 04:21:24;;;;;;;31.30;14.00;;;;;;;1.15;79.25;98963.83;271477;1268;22539;-83
2023/03/30 04:27:58;;;;;;;32.00;17.40;;;;;;;1.20;79.34;98958.09;270485;1260;23370;-84
2023/03/30 04:34:20;;;;;;;35.20;16.20;;;;;;;1.27;79.44;98956.10;270247;1268;22520;-84
2023/03/30 04:40:42;;;;;;;32.90;15.80;;;;;;;1.37;79.84;98949.99;272001;1258;22768;-84
2023/03/30 04:47:06;;;;;;;26.60;14.00;;;;;;;1.54;80.11;98938.30;273461;1268;22397;-84
2023/03/30 04:53:28;;;;;;;27.20;13.90;;;;;;;1.82;80.46;98940.70;271807;1259;22577;-84
2023/03/30 04:59:51;;;;;;;25.20;11.30;;;;;;;2.12;80.24;98938.79;271531;1259;25072;-85
2023/03/30 05:06:30;;;;;;;26.80;10.30;;;;;;;2.47;80.83;98927.09;269199;1275;22614;-84
2023/03/30 05:12:58;;;;;;;21.10;8.70;;;;;;;2.94;80.68;98916.73;269205;1270;23473;-84
2023/03/30 05:19:23;;;;;;;18.30;9.00;;;;;;;3.47;80.35;98920.69;270063;1269;22596;-84
2023/03/30 05:26:27;;;;;;;14.30;6.90;;;;;;;3.77;79.62;98912.06;263102;1307;545065;-84
2023/03/30 05:32:46;;;;;;;13.60;6.30;;;;;;;3.99;79.49;98910.13;267827;1271;23869;-83
2023/03/30 05:39:09;;;;;;;9.10;5.10;;;;;;;4.21;79.44;98908.29;269271;1280;89806;-83
2023/03/30 05:45:43;;;;;;;9.80;4.80;;;;;;;4.47;79.51;98911.52;269535;1280;23547;-83
2023/03/30 05:52:16;;;;;;;9.10;4.50;;;;;;;4.73;79.72;98911.84;272373;1271;22202;-83
2023/03/30 05:58:37;;;;;;;9.40;4.20;;;;;;;5.02;79.91;98913.30;272516;1273;23491;-83
2023/03/30 06:04:57;;;;;;;6.20;3.50;;;;;;;5.29;79.50;98906.01;272676;1271;22460;-84
2023/03/30 06:10:59;;;;;;;13.20;6.00;;;;;;;5.53;79.46;98904.17;270884;1260;22666;-84
2023/03/30 06:17:20;;;;;;;27.60;11.90;;;;;;;5.78;78.97;98898.77;271351;1273;22211;-84
2023/03/30 06:23:23;;;;;;;10.30;5.80;;;;;;;6.05;78.98;98889.14;272838;1265;22408;-84
2023/03/30 06:29:25;;;;;;;9.80;3.90;;;;;;;6.35;78.58;98878.21;271592;1271;22250;-83
2023/03/30 06:35:28;;;;;;;4.60;3.20;;;;;;;6.63;78.08;98872.85;272781;1274;22461;-83
2023/03/30 06:41:30;;;;;;;5.00;2.60;;;;;;;6.92;77.72;98862.11;271119;1270;22552;-85
2023/03/30 06:47:31;;;;;;;5.90;3.30;;;;;;;7.27;77.09;98855.21;269982;1262;22565;-85
2023/03/30 06:53:37;;;;;;;6.20;3.10;;;;;;;7.58;76.31;98854.94;269811;1260;24044;-85
2023/03/30 06:59:38;;;;;;;6.10;2.60;;;;;;;7.84;75.76;98854.45;269697;1258;22567;-85
2023/03/30 07:05:54;;;;;;;6.70;2.70;;;;;;;8.10;75.22;98849.41;270655;1272;22424;-86
2023/03/30 07:12:18;;;;;;;9.30;3.60;;;;;;;8.36;74.58;98848.05;271416;1267;22663;-85
2023/03/30 07:18:20;;;;;;;11.80;4.10;;;;;;;8.66;74.32;98842.64;269902;1274;22539;-84
2023/03/30 07:24:36;;;;;;;9.90;3.80;;;;;;;8.95;74.20;98833.41;269505;1272;22585;-85
2023/03/30 07:30:38;;;;;;;;;;;;;;;9.20;73.68;98832.05;270838;1273;22543;-86
2023/03/30 07:36:50;;;;;;;7.90;3.90;;;;;;;9.53;73.73;98828.89;272617;1272;22504;-85
2023/03/30 07:43:12;;;;;;;6.10;3.40;;;;;;;9.95;72.98;98824.02;271589;1272;22714;-86
2023/03/30 07:49:14;;;;;;;7.60;3.40;;;;;;;10.39;71.86;98818.52;272607;1267;22281;-85
2023/03/30 07:55:36;;;;;;;7.80;3.30;;;;;;;10.65;71.16;98816.25;272698;1272;22172;-86
2023/03/30 08:02:01;;;;;;;9.20;4.40;;;;;;;10.84;71.28;98807.33;270713;1272;22645;-85
2023/03/30 08:08:13;;;;;;;7.90;2.90;;;;;;;11.39;70.47;98800.42;269952;1272;22488;-84
2023/03/30 08:14:36;;;;;;;6.30;3.10;;;;;;;12.16;69.32;98793.96;270117;1273;22382;-84
2023/03/30 08:20:41;;;;;;;5.20;2.70;;;;;;;12.74;67.93;98781.91;272548;1272;23595;-86
2023/03/30 08:26:43;;;;;;;5.80;3.30;;;;;;;13.31;67.32;98775.52;272685;1272;23354;-85
2023/03/30 08:32:45;;;;;;;5.00;2.30;;;;;;;13.58;65.49;98769.70;272710;1273;22499;-84
2023/03/30 08:39:07;;;;;;;4.60;2.70;;;;;;;13.97;64.13;98769.26;272835;1262;22438;-84
2023/03/30 08:45:11;;;;;;;4.20;2.10;;;;;;;14.24;62.91;98770.98;272873;1272;22249;-85
2023/03/30 08:52:02;;;;;;;3.70;2.10;;;;;;;14.55;62.24;98771.94;272357;1272;22572;-85
2023/03/30 08:58:40;;;;;;;7.70;2.40;;;;;;;14.71;60.96;98769.83;272920;1274;22511;-85
2023/03/30 09:04:56;;;;;;;3.90;2.30;;;;;;;14.55;59.10;98769.17;272871;1271;22539;-83
2023/03/30 09:11:34;;;;;;;5.30;2.20;;;;;;;14.11;57.95;98769.39;272275;1272;22384;-86
2023/03/30 09:18:07;;;;;;;3.90;2.20;;;;;;;14.07;55.96;98765.58;272702;1265;22437;-85
2023/03/30 09:24:29;;;;;;;5.00;1.80;;;;;;;14.49;56.50;98748.91;272666;1273;22404;-85
2023/03/30 09:30:51;;;;;;;5.80;1.80;;;;;;;14.84;56.51;98739.16;272782;1272;22379;-85
2023/03/30 09:37:28;;;;;;;4.50;1.70;;;;;;;14.85;56.09;98721.83;269968;1265;22597;-84
2023/03/30 09:44:22;;;;;;;3.30;1.50;;;;;;;15.76;55.12;98706.12;269388;1272;24266;-85
2023/03/30 09:50:28;;;;;;;4.80;1.50;;;;;;;15.63;53.66;98700.41;271305;1272;22404;-85
2023/03/30 09:57:01;;;;;;;3.90;1.60;;;;;;;15.36;53.20;98693.59;271924;1272;22525;-87
2023/03/30 10:03:22;;;;;;;4.90;1.90;;;;;;;15.17;53.32;98683.42;271205;1263;22425;-86
2023/03/30 10:09:31;;;;;;;4.70;1.90;;;;;;;14.98;53.31;98681.44;271637;1264;22564;-86
2023/03/30 10:15:42;;;;;;;5.00;1.90;;;;;;;14.69;53.14;98669.63;269801;1272;22558;-85
2023/03/30 10:21:47;;;;;;;4.00;2.50;;;;;;;14.53;52.99;98656.73;271681;1272;22376;-85
2023/03/30 10:27:54;;;;;;;3.00;2.30;;;;;;;14.58;52.00;98644.42;272826;1264;22465;-85
2023/03/30 10:33:59;;;;;;;5.20;2.20;;;;;;;15.13;51.70;98630.52;272708;1265;22539;-87
2023/03/30 10:40:04;;;;;;;4.90;2.60;;;;;;;16.58;51.67;98623.16;272780;1272;22363;-85
2023/03/30 10:46:27;;;;;;;3.10;2.20;;;;;;;17.57;49.26;98603.48;272728;1272;23268;-85
2023/03/30 10:53:21;;;;;;;3.90;2.40;;;;;;;17.47;48.43;98600.30;271810;1273;22534;-84
2023/03/30 11:00:14;;;;;;;3.80;1.60;;;;;;;17.75;49.06;98600.04;270713;1266;22343;-85
2023/03/30 11:06:40;;;;;;;3.20;1.70;;;;;;;18.83;48.39;98581.37;269696;1274;22587;-85
2023/03/30 11:12:46;;;;;;;3.60;1.40;;;;;;;19.28;47.04;98556.86;272419;1262;22492;-86
2023/03/30 11:18:56;;;;;;;3.50;1.50;;;;;;;19.58;46.44;98538.56;271858;1271;25091;-86
2023/03/30 11:24:58;;;;;;;2.10;1.30;;;;;;;19.77;46.75;98541.42;269242;1267;23371;-85
2023/03/30 11:31:19;;;;;;;4.10;1.50;;;;;;;19.55;46.50;98544.27;269363;1273;22542;-85
2023/03/30 11:37:53;;;;;;;4.20;1.20;;;;;;;19.18;45.54;98545.98;271435;1262;22587;-85
2023/03/30 11:43:55;;;;;;;3.60;1.20;;;;;;;18.21;44.69;98547.45;272851;1262;22406;-85
2023/03/30 11:50:03;;;;;;;3.50;1.10;;;;;;;17.55;46.07;98543.36;272914;1273;22317;-85
2023/03/30 11:56:41;;;;;;;3.00;1.60;;;;;;;17.28;46.57;98541.30;271827;1270;22970;-86
2023/03/30 12:02:48;;;;;;;3.70;1.60;;;;;;;16.86;47.02;98540.46;270310;1272;23374;-87
2023/03/30 12:09:18;;;;;;;6.60;2.00;;;;;;;16.58;47.66;98522.89;270418;1260;22183;-86
2023/03/30 12:15:52;;;;;;;4.30;1.90;;;;;;;17.07;47.98;98498.75;271835;1273;22599;-85
2023/03/30 12:22:17;;;;;;;6.00;2.70;;;;;;;17.68;47.04;98474.60;271797;1272;24093;-86
2023/03/30 12:28:22;;;;;;;13.30;4.50;;;;;;;17.29;47.15;98465.22;272529;1272;23028;-87
2023/03/30 12:34:31;;;;;;;11.00;2.60;;;;;;;17.23;48.17;98465.77;272704;1274;22443;-87
2023/03/30 12:40:32;;;;;;;4.20;1.90;;;;;;;17.43;48.33;98464.66;272930;1272;22580;-86
2023/03/30 12:46:53;;;;;;;11.00;2.30;;;;;;;17.35;48.35;98469.11;272763;1273;22187;-85
2023/03/30 12:53:45;;;;;;;7.80;2.00;;;;;;;17.13;48.14;98469.54;272837;1272;22180;-88
2023/03/30 12:59:52;;;;;;;6.40;2.30;;;;;;;16.95;48.50;98473.21;272849;1273;22433;-86
2023/03/30 13:06:24;;;;;;;14.00;3.00;;;;;;;16.74;48.77;98475.58;272891;1265;23073;-87
2023/03/30 13:12:40;;;;;;;12.40;3.00;;;;;;;16.45;49.18;98475.88;272646;1273;22377;-86
2023/03/30 13:18:52;;;;;;;9.70;2.60;;;;;;;16.30;49.96;98482.30;272807;1272;22231;-86
2023/03/30 13:24:58;;;;;;;6.40;2.80;;;;;;;16.32;49.90;98484.02;272754;1276;22396;-86
2023/03/30 13:31:31;;;;;;;8.50;2.40;;;;;;;16.30;49.69;98478.84;272523;1273;22474;-86
2023/03/30 13:37:46;;;;;;;5.60;2.40;;;;;;;16.28;49.92;98473.67;272911;1265;22203;-86
2023/03/30 13:44:00;;;;;;;12.00;3.30;;;;;;;16.17;49.97;98472.31;272796;1265;22514;-86
2023/03/30 13:50:21;;;;;;;9.80;3.40;;;;;;;16.16;50.16;98468.39;272512;1273;23048;-86
2023/03/30 13:56:23;;;;;;;4.40;2.30;;;;;;;15.99;50.17;98466.59;272832;1263;22474;-86
2023/03/30 14:02:29;;;;;;;6.70;2.80;;;;;;;15.81;50.67;98470.56;272117;1275;22392;-86
2023/03/30 14:08:36;;;;;;;8.90;2.90;;;;;;;15.60;50.79;98467.13;271928;1266;23268;-86
2023/03/30 14:14:52;;;;;;;7.80;2.80;;;;;;;15.40;51.33;98465.27;271734;1275;22939;-86
2023/03/30 14:20:58;;;;;;;4.90;2.60;;;;;;;15.24;51.43;98462.29;270403;1272;22331;-86
2023/03/30 14:27:14;;;;;;;5.50;2.80;;;;;;;15.20;51.74;98461.48;271796;1275;22898;-85
2023/03/30 14:33:19;;;;;;;6.00;2.60;;;;;;;15.19;51.89;98461.73;272572;1275;22691;-85
2023/03/30 14:39:22;;;;;;;11.50;2.80;;;;;;;15.12;52.07;98460.73;272632;1273;23632;-85
2023/03/30 14:45:23;;;;;;;11.20;3.30;;;;;;;14.99;52.63;98461.64;272701;1273;23076;-86
2023/03/30 14:51:36;;;;;;;10.70;3.40;;;;;;;14.87;52.87;98462.84;272525;1260;22619;-84
2023/03/30 14:57:56;;;;;;;7.90;3.20;;;;;;;14.75;53.08;98463.34;271533;1273;22204;-85
2023/03/30 15:04:07;;;;;;;10.30;3.70;;;;;;;14.59;53.40;98457.96;272549;1265;22380;-86
2023/03/30 15:10:34;;;;;;;10.90;3.70;;;;;;;14.46;53.70;98454.43;272630;1273;22413;-86
2023/03/30 15:16:36;;;;;;;5.90;3.30;;;;;;;14.43;54.47;98453.45;272710;1272;22399;-85
2023/03/30 15:23:17;;;;;;;10.60;4.00;;;;;;;14.43;54.70;98451.64;272562;1273;23758;-85
2023/03/30 15:29:19;;;;;;;9.70;4.40;;;;;;;14.38;54.96;98450.91;271585;1273;22198;-85
2023/03/30 15:35:26;;;;;;;16.00;6.60;;;;;;;14.28;55.27;98449.16;272346;1264;22470;-85
2023/03/30 15:41:49;;;;;;;12.30;4.50;;;;;;;14.15;56.65;98443.86;272758;1263;22460;-85
2023/03/30 15:47:51;;;;;;;9.40;4.00;;;;;;;14.00;58.53;98433.65;272789;1263;22202;-85
2023/03/30 15:53:58;;;;;;;12.90;6.00;;;;;;;13.87;59.62;98427.36;272841;1273;22472;-83
2023/03/30 16:00:03;;;;;;;10.70;5.40;;;;;;;13.70;59.82;98421.25;272779;1264;22724;-85
2023/03/30 16:06:10;;;;;;;13.40;5.60;;;;;;;13.54;60.47;98415.67;272764;1263;22463;-85
2023/03/30 16:12:15;;;;;;;10.30;4.30;;;;;;;13.34;60.56;98411.09;272801;1268;23700;-86
2023/03/30 16:18:16;;;;;;;11.80;5.80;;;;;;;13.15;60.82;98407.71;272332;1260;22490;-85
2023/03/30 16:24:17;;;;;;;10.60;5.30;;;;;;;12.93;61.12;98407.33;272882;1273;23750;-84
2023/03/30 16:30:30;;;;;;;10.30;4.80;;;;;;;12.68;61.77;98405.77;272773;1267;22406;-85
2023/03/30 16:36:35;;;;;;;12.40;4.90;;;;;;;12.47;62.62;98403.85;272938;1269;23156;-85
2023/03/30 16:42:36;;;;;;;14.60;5.30;;;;;;;12.29;63.54;98397.14;272908;1263;22969;-85
2023/03/30 16:48:37;;;;;;;11.80;5.20;;;;;;;12.12;64.61;98396.59;272969;1273;23712;-84
2023/03/30 16:54:38;;;;;;;11.80;4.70;;;;;;;11.86;66.18;98392.08;272655;1260;22274;-85
2023/03/30 17:00:55;;;;;;;11.00;4.30;;;;;;;11.54;67.76;98387.92;271668;1272;22426;-85
2023/03/30 17:06:56;;;;;;;10.30;5.10;;;;;;;11.34;69.29;98385.38;272379;1272;22467;-85
2023/03/30 17:12:58;;;;;;;13.20;4.60;;;;;;;11.15;70.88;98379.38;272818;1264;22555;-85
2023/03/30 17:18:59;;;;;;;10.00;4.80;;;;;;;10.98;71.48;98373.74;272700;1273;22482;-84
2023/03/30 17:25:00;;;;;;;12.30;5.20;;;;;;;10.80;72.80;98366.23;272768;1273;23197;-85
2023/03/30 17:31:04;;;;;;;11.10;5.70;;;;;;;10.65;73.77;98367.25;271775;1272;22579;-85
2023/03/30 17:37:11;;;;;;;9.10;5.60;;;;;;;10.53;74.55;98362.09;272678;1272;380095;-84
2023/03/30 17:43:13;;;;;;;9.30;5.40;;;;;;;10.46;75.72;98353.79;264877;1260;10001646;-84
2023/03/30 17:49:16;;;;;;;12.70;6.40;;;;;;;10.43;76.61;98342.68;271579;1273;22333;-84
2023/03/30 17:55:41;;;;;;;9.40;5.30;;;;;;;10.42;77.47;98340.89;272627;1273;22504;-84
2023/03/30 18:01:42;;;;;;;10.70;5.10;;;;;;;10.38;78.80;98341.11;272682;1267;23363;-83
2023/03/30 18:07:45;;;;;;;12.00;6.10;;;;;;;10.30;80.08;98343.36;270889;1272;24271;-83
2023/03/30 18:13:46;;;;;;;16.60;7.20;;;;;;;10.23;81.16;98346.71;270920;1272;23562;-85
2023/03/30 18:19:47;;;;;;;12.20;7.30;;;;;;;10.20;81.89;98354.52;272814;1272;24163;-85
2023/03/30 18:25:48;;;;;;;12.70;6.20;;;;;;;10.18;82.12;98356.08;272822;1270;22406;-85
2023/03/30 18:31:50;;;;;;;12.20;6.40;;;;;;;10.14;82.19;98349.59;272870;1272;22197;-86
2023/03/30 18:37:52;;;;;;;12.70;6.60;;;;;;;10.13;82.63;98351.61;271980;1271;22495;-85
2023/03/30 18:43:54;;;;;;;21.30;11.10;;;;;;;10.11;82.54;98353.01;272887;1273;22485;-85
2023/03/30 18:49:55;;;;;;;28.10;13.60;;;;;;;10.03;82.86;98355.55;272653;1273;24058;-85
2023/03/30 18:55:59;;;;;;;33.30;16.30;;;;;;;9.94;83.45;98355.12;272770;1272;22195;-84
2023/03/30 19:02:00;;;;;;;39.10;17.00;;;;;;;9.92;84.75;98347.92;272748;1272;22392;-84
2023/03/30 19:08:01;;;;;;;30.80;16.30;;;;;;;9.93;85.21;98347.45;272840;1274;22409;-85
2023/03/30 19:14:03;;;;;;;30.80;16.20;;;;;;;9.95;85.93;98346.84;272717;1256;22322;-85
2023/03/30 19:20:06;;;;;;;29.10;14.50;;;;;;;9.96;86.13;98341.84;272768;1270;22424;-85
2023/03/30 19:26:07;;;;;;;24.40;12.30;;;;;;;9.95;86.33;98332.77;272422;1272;23410;-85
2023/03/30 19:32:08;;;;;;;16.90;10.30;;;;;;;9.90;86.34;98325.11;272861;1272;23520;-85
2023/03/30 19:38:09;;;;;;;17.00;10.40;;;;;;;9.86;86.04;98322.13;272724;1264;22494;-85
2023/03/30 19:44:10;;;;;;;20.50;11.70;;;;;;;9.84;86.31;98318.75;272679;1273;22215;-86
2023/03/30 19:50:16;;;;;;;18.40;9.90;;;;;;;9.81;86.17;98318.13;272811;1267;22194;-85
2023/03/30 19:56:18;;;;;;;21.30;11.10;;;;;;;9.79;86.21;98317.73;272787;1272;22217;-85
2023/03/30 20:02:19;;;;;;;18.70;10.20;;;;;;;9.78;86.71;98322.41;272839;1272;23922;-85
2023/03/30 20:08:22;;;;;;;17.10;9.80;;;;;;;9.77;87.33;98331.48;273001;1273;22414;-84
2023/03/30 20:14:24;;;;;;;16.20;8.30;;;;;;;9.77;87.29;98328.34;272837;1272;22342;-85
2023/03/30 20:20:25;;;;;;;16.30;8.70;;;;;;;9.76;87.48;98325.06;272960;1272;22551;-84
2023/03/30 20:26:28;;;;;;;17.30;7.70;;;;;;;9.76;88.05;98324.89;271967;1272;22283;-85
2023/03/30 20:32:29;;;;;;;15.10;8.70;;;;;;;9.75;88.06;98326.54;272809;1271;22389;-84
2023/03/30 20:38:30;;;;;;;15.30;6.50;;;;;;;9.75;87.74;98325.98;271907;1272;22523;-85
2023/03/30 20:44:32;;;;;;;24.50;9.00;;;;;;;9.78;87.57;98314.75;272925;1272;22563;-85
2023/03/30 20:50:33;;;;;;;17.50;7.30;;;;;;;9.80;87.75;98308.52;272764;1271;23313;-85
2023/03/30 20:56:34;;;;;;;10.30;4.80;;;;;;;9.80;88.14;98304.77;271769;1272;23849;-84
2023/03/30 21:02:36;;;;;;;9.40;4.60;;;;;;;9.84;88.19;98292.75;272978;1264;22338;-85
2023/03/30 21:08:41;;;;;;;11.40;5.40;;;;;;;9.83;88.26;98281.98;271607;1272;25378;-84
2023/03/30 21:14:44;;;;;;;9.60;4.60;;;;;;;9.80;88.13;98280.64;272481;1271;22199;-84
2023/03/30 21:20:46;;;;;;;8.40;4.90;;;;;;;9.75;88.55;98282.11;273881;1257;22342;-85
2023/03/30 21:26:47;;;;;;;9.60;5.40;;;;;;;9.67;88.42;98278.96;272505;1268;22223;-84
2023/03/30 21:32:48;;;;;;;10.30;5.10;;;;;;;9.63;88.61;98275.44;273372;1268;22216;-84
2023/03/30 21:38:49;;;;;;;8.30;5.30;;;;;;;9.57;88.74;98280.26;271288;1260;22271;-84
2023/03/30 21:44:50;;;;;;;8.00;5.70;;;;;;;9.51;88.87;98278.20;272882;1267;22468;-85
2023/03/30 21:51:22;;;;;;;9.20;5.40;;;;;;;9.47;88.84;98269.91;273622;1267;22577;-84
2023/03/30 21:57:24;;;;;;;11.20;6.90;;;;;;;9.44;88.76;98262.58;272556;1255;22181;-85
2023/03/30 22:03:25;;;;;;;8.90;6.20;;;;;;;9.41;88.96;98261.07;273419;1258;22396;-84
2023/03/30 22:09:26;;;;;;;11.70;6.10;;;;;;;9.37;89.13;98254.80;273589;1268;22294;-85
2023/03/30 22:15:27;;;;;;;11.00;6.90;;;;;;;9.33;88.91;98250.42;273557;1252;22325;-85
2023/03/30 22:21:34;;;;;;;14.10;6.80;;;;;;;9.29;89.03;98236.84;271960;1271;22203;-84
2023/03/30 22:27:36;;;;;;;12.30;6.90;;;;;;;9.26;89.55;98232.84;273704;1268;22202;-85
2023/03/30 22:33:37;;;;;;;10.40;6.60;;;;;;;9.17;89.67;98234.83;273913;1268;22482;-85
2023/03/30 22:39:38;;;;;;;10.80;5.70;;;;;;;9.08;89.80;98233.07;273925;1268;22284;-85
2023/03/30 22:45:40;;;;;;;11.90;7.10;;;;;;;8.98;89.99;98230.67;273981;1268;22422;-84
2023/03/30 22:51:49;;;;;;;9.40;6.40;;;;;;;8.85;90.13;98236.45;273920;1267;22325;-85
2023/03/30 22:57:53;;;;;;;13.00;7.30;;;;;;;8.75;90.60;98233.83;273953;1268;22344;-84
2023/03/30 23:03:54;;;;;;;11.00;7.20;;;;;;;8.70;90.97;98219.90;273916;1268;23191;-84
2023/03/30 23:09:57;;;;;;;10.10;6.80;;;;;;;8.66;91.26;98214.83;273719;1268;22867;-85
2023/03/30 23:16:20;;;;;;;13.00;7.60;;;;;;;8.61;91.55;98221.04;273735;1268;22437;-85
2023/03/30 23:22:22;;;;;;;15.10;7.80;;;;;;;8.57;91.94;98226.30;273720;1260;22603;-84
2023/03/30 23:28:24;;;;;;;12.70;7.40;;;;;;;8.50;91.73;98237.56;273796;1268;22394;-84
2023/03/30 23:34:41;;;;;;;12.60;7.40;;;;;;;8.49;92.19;98243.94;273530;1259;22334;-84
2023/03/30 23:40:46;;;;;;;;;;;;;;;8.55;92.72;98244.45;271018;1255;22521;-84
2023/03/30 23:46:48;;;;;;;11.80;7.60;;;;;;;8.61;93.04;98251.83;273207;1268;22216;-86
2023/03/30 23:52:49;;;;;;;13.60;9.00;;;;;;;8.66;93.13;98253.48;271797;1268;22484;-85
2023/03/30 23:58:50;;;;;;;22.30;11.80;;;;;;;8.73;93.47;98252.21;272544;1268;22425;-84
